Time;durP1;ratioP1;P1;durP2;ratioP2;P2;SDS_P1;SDS_P2;PMS_P1;PMS_P2;Temp;Humidity;BMP_temperature;BMP_pressure;BME280_temperature;BME280_humidity;BME280_pressure;Samples;Min_cycle;Max_cycle;Signal;HPM_P1;HPM_P2
2023/03/06 00:01:26;;;;;;;4.75;0.88;;;;;;;;;;5029120;28;20057;-73
2023/03/06 00:03:53;;;;;;;3.22;1.17;;;;;;;;;;5029129;28;20042;-76
2023/03/06 00:06:19;;;;;;;4.10;1.15;;;4.20;99.90;;;;;;5027174;28;20076;-72
2023/03/06 00:08:45;;;;;;;5.72;1.85;;;;;;;;;;5001595;28;20112;-74
2023/03/06 00:11:14;;;;;;;6.78;2.10;;;;;;;;;;5008242;28;20049;-72
2023/03/06 00:13:40;;;;;;;9.80;1.65;;;;;;;;;;5007988;28;20050;-74
2023/03/06 00:16:06;;;;;;;9.82;2.47;;;4.20;99.90;;;;;;5019573;28;20118;-71
2023/03/06 00:18:32;;;;;;;4.40;1.40;;;;;;;;;;5028982;28;20488;-71
2023/03/06 00:20:58;;;;;;;4.30;1.20;;;4.10;99.90;;;;;;5012692;28;20080;-70
2023/03/06 00:23:24;;;;;;;7.30;1.65;;;4.00;99.90;;;;;;5030174;28;20110;-71
2023/03/06 00:25:50;;;;;;;4.28;1.10;;;3.90;99.90;;;;;;5046826;28;20042;-71
2023/03/06 00:28:16;;;;;;;5.85;1.30;;;;;;;;;;5027402;28;20034;-71
2023/03/06 00:30:43;;;;;;;4.22;1.15;;;;;;;;;;4995776;28;20413;-71
2023/03/06 00:33:09;;;;;;;2.30;1.23;;;;;;;;;;5013347;28;20532;-71
2023/03/06 00:35:36;;;;;;;6.35;1.63;;;4.10;99.90;;;;;;5024952;28;20045;-71
2023/03/06 00:38:02;;;;;;;5.45;1.40;;;;;;;;;;5032633;28;20049;-71
2023/03/06 00:40:28;;;;;;;1.92;1.20;;;4.20;99.90;;;;;;5032210;28;20045;-71
2023/03/06 00:42:54;;;;;;;2.72;1.20;;;;;;;;;;5032939;28;20041;-71
2023/03/06 00:45:20;;;;;;;5.13;1.67;;;;;;;;;;5031024;28;20120;-73
2023/03/06 00:47:45;;;;;;;4.70;1.67;;;3.90;99.90;;;;;;5006315;28;20125;-71
2023/03/06 00:50:11;;;;;;;8.60;1.50;;;;;;;;;;5011593;28;20042;-71
2023/03/06 00:52:38;;;;;;;2.83;1.40;;;;;;;;;;5012379;28;20130;-71
2023/03/06 00:55:04;;;;;;;3.00;1.50;;;;;;;;;;5021356;28;20472;-71
2023/03/06 00:57:30;;;;;;;4.10;1.38;;;;;;;;;;5031825;28;20478;-71
2023/03/06 00:59:56;;;;;;;5.28;1.25;;;4.10;99.90;;;;;;5032348;28;20128;-71
2023/03/06 01:02:22;;;;;;;4.15;1.50;;;;;;;;;;5048850;28;20044;-71
2023/03/06 01:04:47;;;;;;;6.65;1.67;;;3.90;99.90;;;;;;5032702;28;20042;-71
2023/03/06 01:07:13;;;;;;;2.90;1.33;;;;;;;;;;5027183;28;20045;-73
2023/03/06 01:09:39;;;;;;;3.63;1.65;;;;;;;;;;5015493;28;20410;-73
2023/03/06 01:12:05;;;;;;;3.60;1.70;;;;;;;;;;5012029;28;20064;-73
2023/03/06 01:14:31;;;;;;;5.65;1.35;;;;;;;;;;5011548;28;20045;-74
2023/03/06 01:16:58;;;;;;;6.35;1.45;;;;;;;;;;5022549;28;20581;-75
2023/03/06 01:19:24;;;;;;;5.38;2.03;;;;;;;;;;5031491;28;20420;-72
2023/03/06 01:21:50;;;;;;;4.85;1.25;;;;;;;;;;5031351;28;20079;-71
2023/03/06 01:24:16;;;;;;;1.65;1.20;;;;;;;;;;5025871;28;20041;-72
2023/03/06 01:26:42;;;;;;;1.45;1.08;;;;;;;;;;5015663;28;20040;-72
2023/03/06 01:29:08;;;;;;;3.20;1.00;;;;;;;;;;5011549;28;20077;-70
2023/03/06 01:31:34;;;;;;;0.98;0.80;;;;;;;;;;5024269;28;20048;-71
2023/03/06 01:34:00;;;;;;;1.13;0.95;;;;;;;;;;5027898;28;20045;-71
2023/03/06 01:36:26;;;;;;;2.30;1.00;;;;;;;;;;5021282;28;20085;-71
2023/03/06 01:38:52;;;;;;;2.00;1.00;;;;;;;;;;5025872;28;20046;-71
2023/03/06 01:41:19;;;;;;;2.70;1.23;;;4.10;99.90;;;;;;5021794;28;20049;-71
2023/03/06 01:43:46;;;;;;;2.15;1.00;;;;;;;;;;5013980;28;20125;-71
2023/03/06 01:46:31;;;;;;;1.60;1.00;;;;;;;;;;5031648;28;20037;-71
2023/03/06 01:49:15;;;;;;;5.63;0.90;;;;;;;;;;5026877;28;20090;-71
2023/03/06 01:51:41;;;;;;;2.22;1.00;;;;;;;;;;5020981;28;20041;-71
2023/03/06 01:54:21;;;;;;;5.45;1.30;;;3.80;99.90;;;;;;5011738;28;20038;-71
2023/03/06 01:56:50;;;;;;;4.03;1.20;;;4.10;99.90;;;;;;5032486;28;20041;-71
2023/03/06 01:59:16;;;;;;;3.17;1.20;;;;;;;;;;5027840;28;20052;-72
2023/03/06 02:01:42;;;;;;;7.25;1.70;;;4.00;99.90;;;;;;5030243;28;20046;-71
2023/03/06 02:04:09;;;;;;;9.20;2.13;;;;;;;;;;5043612;28;20156;-72
2023/03/06 02:06:37;;;;;;;8.63;1.58;;;;;;;;;;5024565;28;20046;-71
2023/03/06 02:09:04;;;;;;;2.78;1.20;;;4.20;99.90;;;;;;5013081;28;20060;-71
2023/03/06 02:11:30;;;;;;;3.00;1.42;;;;;;;;;;5036985;28;20102;-72
2023/03/06 02:13:56;;;;;;;1.73;1.10;;;;;;;;;;5029799;28;20068;-71
2023/03/06 02:16:25;;;;;;;3.00;0.90;;;;;;;;;;5031629;28;20045;-71
2023/03/06 02:18:51;;;;;;;2.65;0.95;;;;;;;;;;5011560;28;20052;-73
2023/03/06 02:21:43;;;;;;;2.47;1.00;;;;;;;;;;5025231;28;20425;-71
2023/03/06 02:24:23;;;;;;;4.57;0.80;;;;;;;;;;5025373;28;20045;-71
2023/03/06 02:26:49;;;;;;;1.40;0.70;;;;;;;;;;5031233;28;20044;-73
2023/03/06 02:29:21;;;;;;;0.80;0.60;;;4.00;99.90;;;;;;5015455;28;20048;-71
2023/03/06 02:31:47;;;;;;;1.20;0.52;;;;;;;;;;5032530;28;20045;-73
2023/03/06 02:34:13;;;;;;;0.70;0.70;;;;;;;;;;5008497;28;20038;-73
2023/03/06 02:36:44;;;;;;;1.55;0.55;;;4.00;99.90;;;;;;5016291;28;20108;-71
2023/03/06 02:39:11;;;;;;;0.82;0.60;;;;;;;;;;5009859;28;20088;-71
2023/03/06 02:41:37;;;;;;;2.65;1.00;;;;;;;;;;5022083;28;20129;-71
2023/03/06 02:44:03;;;;;;;3.45;2.30;;;;;;;;;;5029439;28;20077;-71
2023/03/06 02:46:30;;;;;;;6.82;2.60;;;;;;;;;;5029982;28;20072;-71
2023/03/06 02:48:56;;;;;;;2.25;1.00;;;;;;;;;;5026421;28;20033;-70
2023/03/06 02:51:22;;;;;;;4.35;0.85;;;;;;;;;;5029964;28;20106;-69
2023/03/06 02:53:47;;;;;;;0.98;0.95;;;4.00;99.90;;;;;;5026934;28;20571;-71
2023/03/06 02:56:14;;;;;;;0.80;0.80;;;;;;;;;;5022995;28;20045;-71
2023/03/06 02:58:40;;;;;;;0.73;0.60;;;;;;;;;;5008815;28;20049;-70
2023/03/06 03:01:06;;;;;;;1.20;0.70;;;3.50;99.90;;;;;;5029504;28;20386;-71
2023/03/06 03:03:32;;;;;;;0.70;0.50;;;;;;;;;;5028780;28;20045;-71
2023/03/06 03:05:59;;;;;;;1.63;0.60;;;;;;;;;;5024541;28;20041;-71
2023/03/06 03:08:25;;;;;;;0.57;0.50;;;;;;;;;;5008397;28;20120;-74
2023/03/06 03:10:51;;;;;;;1.15;0.50;;;;;;;;;;5026583;28;20075;-71
2023/03/06 03:13:18;;;;;;;0.70;0.70;;;3.70;99.90;;;;;;5009217;28;20037;-71
2023/03/06 03:15:44;;;;;;;1.08;0.77;;;;;;;;;;5009942;28;20049;-71
2023/03/06 03:18:10;;;;;;;0.95;0.77;;;3.40;99.90;;;;;;4993105;28;20561;-72
2023/03/06 03:20:36;;;;;;;1.15;0.80;;;3.40;99.90;;;;;;5023162;28;20029;-71
2023/03/06 03:23:02;;;;;;;1.10;0.80;;;;;;;;;;5010122;28;20096;-72
2023/03/06 03:25:28;;;;;;;1.48;1.13;;;;;;;;;;4995095;28;20033;-74
2023/03/06 03:27:54;;;;;;;3.38;1.00;;;;;;;;;;5029179;28;20044;-71
2023/03/06 03:30:20;;;;;;;1.83;1.20;;;;;;;;;;5014801;28;20123;-71
2023/03/06 03:32:46;;;;;;;1.00;0.90;;;;;;;;;;5045726;28;20038;-71
2023/03/06 03:35:12;;;;;;;2.20;1.40;;;;;;;;;;5018267;28;20052;-73
2023/03/06 03:37:38;;;;;;;1.63;0.70;;;;;;;;;;5027022;28;20041;-73
2023/03/06 03:40:05;;;;;;;1.58;0.60;;;;;;;;;;5025441;28;20453;-71
2023/03/06 03:42:31;;;;;;;1.83;1.45;;;3.10;99.90;;;;;;5036653;28;20490;-71
2023/03/06 03:44:57;;;;;;;1.05;0.80;;;3.20;99.90;;;;;;5024254;28;20030;-71
2023/03/06 03:47:23;;;;;;;0.93;0.70;;;;;;;;;;5029787;28;20034;-72
2023/03/06 03:49:49;;;;;;;0.85;0.80;;;;;;;;;;5029864;28;20532;-72
2023/03/06 03:52:15;;;;;;;2.35;1.08;;;;;;;;;;5026243;28;20425;-71
2023/03/06 03:54:41;;;;;;;2.55;1.27;;;;;;;;;;5010267;28;20560;-73
2023/03/06 03:57:07;;;;;;;2.05;1.30;;;;;;;;;;5012343;28;20046;-71
2023/03/06 03:59:32;;;;;;;1.80;1.10;;;3.20;99.90;;;;;;5032272;28;20052;-71
2023/03/06 04:01:58;;;;;;;2.75;1.00;;;;;;;;;;5033177;28;20413;-71
2023/03/06 04:04:24;;;;;;;2.55;0.90;;;3.10;99.90;;;;;;5033225;28;20535;-71
2023/03/06 04:06:50;;;;;;;0.73;0.73;;;3.40;99.90;;;;;;5033845;28;20041;-71
2023/03/06 04:09:16;;;;;;;2.88;0.85;;;;;;;;;;5027543;28;20034;-72
2023/03/06 04:11:42;;;;;;;0.85;0.70;;;;;;;;;;5013674;28;20125;-71
2023/03/06 04:14:10;;;;;;;0.70;0.65;;;;;;;;;;5020888;28;20423;-72
2023/03/06 04:16:36;;;;;;;1.20;0.90;;;;;;;;;;5017459;28;20133;-71
2023/03/06 04:19:02;;;;;;;3.72;0.90;;;;;;;;;;5050518;28;20132;-71
2023/03/06 04:21:28;;;;;;;1.35;0.90;;;;;;;;;;4999884;28;20525;-71
2023/03/06 04:23:53;;;;;;;1.42;0.63;;;2.90;99.90;;;;;;5013380;28;20038;-71
2023/03/06 04:26:19;;;;;;;3.90;1.33;;;;;;;;;;5013759;28;20409;-70
2023/03/06 04:28:45;;;;;;;3.55;0.98;;;3.00;99.90;;;;;;5014065;28;20045;-71
2023/03/06 04:31:11;;;;;;;1.67;0.68;;;3.20;99.90;;;;;;5013752;28;20046;-71
2023/03/06 04:33:37;;;;;;;2.30;1.10;;;2.90;99.90;;;;;;5013362;28;20120;-71
2023/03/06 04:36:03;;;;;;;1.38;1.00;;;3.20;99.90;;;;;;4997444;28;20077;-71
2023/03/06 04:38:29;;;;;;;1.48;0.80;;;;;;;;;;5013953;28;20474;-71
2023/03/06 04:40:55;;;;;;;1.85;0.90;;;;;;;;;;5012780;28;20116;-71
2023/03/06 04:43:21;;;;;;;2.10;1.65;;;;;;;;;;5013628;28;20169;-72
2023/03/06 04:45:47;;;;;;;2.83;1.40;;;;;;;;;;5013865;28;20034;-71
2023/03/06 04:48:17;;;;;;;1.35;0.88;;;;;;;;;;5012997;28;20038;-72
2023/03/06 04:50:43;;;;;;;1.40;1.08;;;;;;;;;;5013088;28;20117;-71
2023/03/06 04:53:10;;;;;;;2.90;1.10;;;;;;;;;;5014665;28;20046;-72
2023/03/06 04:55:36;;;;;;;1.95;1.20;;;;;;;;;;5032577;28;20095;-71
2023/03/06 04:58:02;;;;;;;3.22;1.63;;;;;;;;;;5049622;28;20132;-71
2023/03/06 05:00:31;;;;;;;0.80;0.80;;;3.20;99.90;;;;;;5035499;28;20066;-72
2023/03/06 05:02:59;;;;;;;1.38;0.82;;;2.90;99.90;;;;;;5013257;28;20129;-71
2023/03/06 05:05:25;;;;;;;2.10;0.90;;;3.10;99.90;;;;;;5004395;28;20042;-71
2023/03/06 05:07:51;;;;;;;0.88;0.73;;;3.00;99.90;;;;;;5032474;28;20405;-71
2023/03/06 05:10:18;;;;;;;5.22;1.10;;;3.20;99.90;;;;;;5032452;28;20080;-71
2023/03/06 05:12:44;;;;;;;1.58;0.90;;;;;;;;;;5031573;28;20510;-71
2023/03/06 05:15:10;;;;;;;2.05;1.02;;;;;;;;;;5033148;28;20084;-71
2023/03/06 05:17:37;;;;;;;2.25;1.25;;;;;;;;;;5032462;28;20041;-71
2023/03/06 05:20:05;;;;;;;1.55;0.95;;;3.20;99.90;;;;;;5048552;28;20053;-71
2023/03/06 05:22:31;;;;;;;1.90;0.90;;;;;;;;;;5016188;28;20038;-71
2023/03/06 05:24:57;;;;;;;1.90;0.88;;;3.10;99.90;;;;;;5006137;28;20045;-71
2023/03/06 05:27:23;;;;;;;1.65;0.95;;;;;;;;;;5049465;28;20509;-72
2023/03/06 05:29:49;;;;;;;2.72;1.20;;;;;;;;;;5049218;28;20052;-73
2023/03/06 05:32:15;;;;;;;0.95;0.70;;;;;;;;;;5015197;28;20049;-72
2023/03/06 05:34:41;;;;;;;4.97;1.13;;;;;;;;;;5012497;28;20137;-72
2023/03/06 05:37:08;;;;;;;2.80;1.00;;;;;;;;;;4995816;28;20136;-73
2023/03/06 05:39:34;;;;;;;1.67;1.20;;;;;;;;;;4996001;28;20038;-72
2023/03/06 05:42:00;;;;;;;2.05;1.00;;;;;;;;;;5012016;28;20076;-71
2023/03/06 05:44:34;;;;;;;4.00;0.80;;;2.60;99.90;;;;;;5012106;28;20092;-72
2023/03/06 05:47:00;;;;;;;1.17;1.08;;;;;;;;;;5012073;28;20494;-71
2023/03/06 05:49:29;;;;;;;3.05;1.05;;;2.70;99.90;;;;;;5029557;28;20087;-71
2023/03/06 05:51:55;;;;;;;2.60;1.42;;;;;;;;;;5048611;28;20048;-71
2023/03/06 05:54:23;;;;;;;3.03;1.17;;;2.50;99.90;;;;;;5007787;28;20069;-71
2023/03/06 05:56:49;;;;;;;3.78;1.20;;;2.60;99.90;;;;;;5045666;28;20052;-71
2023/03/06 05:59:15;;;;;;;2.85;1.40;;;;;;;;;;5031011;28;20049;-71
2023/03/06 06:01:41;;;;;;;5.32;1.30;;;2.70;99.90;;;;;;5024542;28;20568;-71
2023/03/06 06:04:07;;;;;;;1.80;1.17;;;2.60;99.90;;;;;;5011885;28;20100;-71
2023/03/06 06:06:33;;;;;;;11.65;1.85;;;;;;;;;;5011809;28;20489;-73
2023/03/06 06:08:59;;;;;;;6.63;2.90;;;;;;;;;;5019753;28;20053;-71
2023/03/06 06:11:24;;;;;;;8.88;1.55;;;2.60;99.90;;;;;;5014779;28;20037;-72
2023/03/06 06:13:50;;;;;;;4.30;1.55;;;2.60;99.90;;;;;;5030817;28;20496;-71
2023/03/06 06:16:15;;;;;;;2.60;1.60;;;2.40;99.90;;;;;;5013428;28;20046;-72
2023/03/06 06:18:42;;;;;;;5.53;1.92;;;2.60;99.90;;;;;;5011639;28;20080;-72
2023/03/06 06:21:09;;;;;;;2.25;1.50;;;2.40;99.90;;;;;;5009606;28;20164;-72
2023/03/06 06:23:35;;;;;;;3.55;1.45;;;2.40;99.90;;;;;;5011527;28;20069;-71
2023/03/06 06:26:02;;;;;;;2.28;1.90;;;;;;;;;;5011119;28;20061;-72
2023/03/06 06:28:28;;;;;;;9.02;1.48;;;2.30;99.90;;;;;;5022854;28;20037;-71
2023/03/06 06:30:54;;;;;;;3.65;1.77;;;2.40;99.90;;;;;;5031068;28;20037;-72
2023/03/06 06:33:20;;;;;;;9.63;2.03;;;;;;;;;;5013988;28;20052;-72
2023/03/06 06:35:46;;;;;;;4.63;1.50;;;;;;;;;;5014342;28;20045;-70
2023/03/06 06:38:12;;;;;;;3.13;1.77;;;;;;;;;;5047257;28;20416;-72
2023/03/06 06:40:38;;;;;;;2.45;1.50;;;;;;;;;;4999007;28;20099;-73
2023/03/06 06:43:04;;;;;;;3.10;1.58;;;;;;;;;;5010486;28;20589;-72
2023/03/06 06:45:30;;;;;;;7.20;1.50;;;;;;;;;;5023098;28;20038;-72
2023/03/06 06:47:56;;;;;;;4.78;1.67;;;;;;;;;;5014424;28;20527;-72
2023/03/06 06:50:22;;;;;;;3.28;1.48;;;;;;;;;;5014506;28;20041;-72
2023/03/06 06:52:48;;;;;;;1.33;1.08;;;;;;;;;;5040527;28;20548;-72
2023/03/06 06:55:14;;;;;;;3.40;1.23;;;2.60;99.90;;;;;;4995339;28;20133;-72
2023/03/06 06:57:41;;;;;;;2.22;1.27;;;;;;;;;;5010315;28;20510;-72
2023/03/06 07:00:07;;;;;;;2.78;1.20;;;;;;;;;;5010896;28;20045;-72
2023/03/06 07:02:33;;;;;;;3.70;1.73;;;;;;;;;;5010513;28;20084;-73
2023/03/06 07:04:59;;;;;;;1.90;1.17;;;;;;;;;;5010055;28;20061;-73
2023/03/06 07:07:25;;;;;;;3.47;1.70;;;;;;;;;;5009856;28;20082;-70
2023/03/06 07:09:51;;;;;;;2.53;1.30;;;;;;;;;;5020754;28;20063;-70
2023/03/06 07:12:17;;;;;;;1.90;1.23;;;;;;;;;;5026401;28;20124;-72
2023/03/06 07:14:43;;;;;;;3.72;1.50;;;;;;;;;;5023916;28;20551;-72
2023/03/06 07:17:09;;;;;;;2.88;1.50;;;;;;;;;;5003822;28;20045;-70
2023/03/06 07:19:35;;;;;;;3.78;1.63;;;;;;;;;;5026588;28;20124;-72
2023/03/06 07:22:01;;;;;;;3.40;1.60;;;;;;;;;;5022276;28;20129;-73
2023/03/06 07:24:27;;;;;;;2.67;1.88;;;;;;;;;;5026786;28;20132;-72
2023/03/06 07:26:53;;;;;;;4.80;1.85;;;;;;;;;;5026531;28;20048;-72
2023/03/06 07:29:19;;;;;;;3.42;1.92;;;;;;;;;;5005265;28;20045;-72
2023/03/06 07:31:45;;;;;;;3.38;1.90;;;;;;;;;;5025947;28;20570;-72
2023/03/06 07:34:12;;;;;;;3.13;1.92;;;;;;;;;;5036562;28;20037;-72
2023/03/06 07:36:41;;;;;;;3.67;2.20;;;;;;;;;;5021547;28;20045;-72
2023/03/06 07:39:08;;;;;;;8.73;6.88;;;;;;;;;;5019926;28;20136;-72
2023/03/06 07:41:34;;;;;;;7.03;4.43;;;;;;;;;;5030271;28;20050;-74
2023/03/06 07:44:00;;;;;;;11.02;6.80;;;;;;;;;;5037474;28;20030;-72
2023/03/06 07:46:25;;;;;;;5.72;3.88;;;3.70;99.90;;;;;;5032841;28;20034;-73
2023/03/06 07:48:51;;;;;;;3.10;1.85;;;;;;;;;;5022535;28;20091;-74
2023/03/06 07:51:19;;;;;;;5.10;1.50;;;;;;;;;;5019884;28;20042;-73
2023/03/06 07:53:45;;;;;;;2.35;1.67;;;4.00;99.90;;;;;;5037775;28;20041;-72
2023/03/06 07:56:12;;;;;;;4.50;1.60;;;;;;;;;;5024053;28;20044;-72
2023/03/06 07:58:38;;;;;;;4.95;2.05;;;;;;;;;;5025220;28;20042;-72
2023/03/06 08:01:05;;;;;;;5.40;1.75;;;4.10;99.90;;;;;;5036186;28;20037;-71
2023/03/06 08:03:32;;;;;;;5.15;1.30;;;;;;;;;;5026414;28;20296;-70
2023/03/06 08:06:08;;;;;;;4.72;1.23;;;;;;;;;;5024579;28;20034;-71
2023/03/06 08:08:35;;;;;;;3.75;1.38;;;;;;;;;;5044173;28;20056;-72
2023/03/06 08:11:01;;;;;;;2.70;1.17;;;4.00;99.90;;;;;;5025570;28;20504;-71
2023/03/06 08:13:27;;;;;;;9.07;2.55;;;;;;;;;;5008708;28;20049;-71
2023/03/06 08:15:53;;;;;;;3.13;1.42;;;;;;;;;;5012985;28;20041;-71
2023/03/06 08:18:19;;;;;;;3.55;1.67;;;;;;;;;;5025250;28;20049;-72
2023/03/06 08:20:45;;;;;;;3.10;1.33;;;;;;;;;;5042883;28;20193;-71
2023/03/06 08:23:11;;;;;;;5.28;2.33;;;;;;;;;;5023857;28;20494;-73
2023/03/06 08:25:37;;;;;;;2.88;1.30;;;;;;;;;;5024238;28;20404;-71
2023/03/06 08:28:03;;;;;;;2.90;1.55;;;;;;;;;;5026252;28;20060;-71
2023/03/06 08:30:29;;;;;;;2.60;1.50;;;;;;;;;;5005809;28;20401;-74
2023/03/06 08:32:55;;;;;;;4.85;1.30;;;;;;;;;;5011994;28;20049;-72
2023/03/06 08:35:21;;;;;;;2.80;1.33;;;;;;;;;;5008786;28;20871;-72
2023/03/06 08:37:47;;;;;;;5.50;1.45;;;4.60;99.90;;;;;;5022651;28;20041;-72
2023/03/06 08:40:13;;;;;;;3.80;1.27;;;4.80;99.90;;;;;;5045906;28;20047;-72
2023/03/06 08:42:39;;;;;;;4.50;2.58;;;;;;;;;;5022129;28;20044;-72
2023/03/06 08:45:05;;;;;;;5.70;1.48;;;5.10;99.90;;;;;;5030557;28;20037;-72
2023/03/06 08:47:33;;;;;;;7.90;2.47;;;5.20;99.90;;;;;;5031506;28;20041;-72
2023/03/06 08:49:59;;;;;;;3.88;1.17;;;;;;;;;;5016305;28;20064;-72
2023/03/06 08:52:25;;;;;;;3.13;1.25;;;;;;;;;;5012546;28;20038;-72
2023/03/06 08:54:51;;;;;;;2.70;1.40;;;;;;;;;;5003473;28;20496;-72
2023/03/06 08:57:17;;;;;;;2.78;1.48;;;;;;;;;;5001197;28;20046;-73
2023/03/06 08:59:43;;;;;;;2.90;1.23;;;;;;;;;;5013196;28;20049;-74
2023/03/06 09:02:14;;;;;;;2.63;1.00;;;5.10;99.90;;;;;;5029650;28;20038;-72
2023/03/06 09:04:40;;;;;;;2.00;0.90;;;;;;;;;;5013351;28;20488;-71
2023/03/06 09:07:06;;;;;;;4.22;1.20;;;;;;;;;;5029417;28;20038;-71
2023/03/06 09:09:32;;;;;;;2.38;1.17;;;5.30;99.90;;;;;;4997357;28;20362;-72
2023/03/06 09:11:58;;;;;;;2.58;1.23;;;;;;;;;;5012956;28;20099;-71
2023/03/06 09:14:23;;;;;;;5.60;1.42;;;5.50;99.90;;;;;;5013105;28;20042;-71
2023/03/06 09:16:49;;;;;;;4.45;1.05;;;5.50;99.90;;;;;;5013088;28;20188;-71
2023/03/06 09:19:14;;;;;;;7.03;1.27;;;5.60;99.90;;;;;;4996742;28;20049;-72
2023/03/06 09:21:40;;;;;;;3.03;1.15;;;5.60;99.90;;;;;;5013225;28;20575;-71
2023/03/06 09:24:06;;;;;;;5.30;1.02;;;5.90;99.90;;;;;;5012648;28;20042;-72
2023/03/06 09:26:31;;;;;;;4.93;1.33;;;5.90;99.90;;;;;;4996668;28;20037;-71
2023/03/06 09:28:57;;;;;;;3.47;0.85;;;6.00;99.90;;;;;;5012658;28;20038;-75
2023/03/06 09:31:23;;;;;;;3.15;1.02;;;5.80;99.90;;;;;;5000746;28;20079;-72
2023/03/06 09:33:48;;;;;;;2.13;0.80;;;5.70;99.90;;;;;;5032362;28;20038;-72
2023/03/06 09:36:19;;;;;;;3.50;1.05;;;5.80;99.90;;;;;;5032512;28;20042;-72
2023/03/06 09:38:47;;;;;;;3.67;0.80;;;5.50;99.90;;;;;;5032357;28;20033;-72
2023/03/06 09:41:27;;;;;;;3.20;0.95;;;5.70;99.90;;;;;;5031894;28;20091;-71
2023/03/06 09:44:03;;;;;;;3.00;1.02;;;5.40;99.90;;;;;;5015486;28;20488;-71
2023/03/06 09:46:34;;;;;;;4.85;2.70;;;5.30;99.90;;;;;;5015356;28;20079;-72
2023/03/06 09:49:15;;;;;;;6.68;1.52;;;5.50;99.90;;;;;;5015659;28;20048;-71
2023/03/06 09:52:01;;;;;;;4.82;0.80;;;5.40;99.90;;;;;;5031802;28;20049;-72
2023/03/06 09:55:06;;;;;;;3.10;1.15;;;5.90;99.90;;;;;;5031540;28;20054;-71
2023/03/06 09:57:39;;;;;;;2.08;0.93;;;5.90;99.90;;;;;;5030650;28;20056;-72
2023/03/06 10:00:15;;;;;;;2.80;1.02;;;5.70;99.90;;;;;;5032014;28;20076;-72
2023/03/06 10:02:52;;;;;;;2.63;1.08;;;5.60;99.90;;;;;;5047887;28;20042;-73
2023/03/06 10:05:35;;;;;;;5.10;0.75;;;5.90;99.90;;;;;;5015302;28;20374;-72
2023/03/06 10:08:19;;;;;;;2.05;0.60;;;5.90;99.90;;;;;;5014623;28;20113;-71
2023/03/06 10:10:57;;;;;;;5.18;0.90;;;5.90;99.90;;;;;;5028175;28;20121;-71
2023/03/06 10:13:52;;;;;;;1.33;0.80;;;6.20;99.90;;;;;;5028425;28;20053;-72
2023/03/06 10:16:18;;;;;;;3.85;0.73;;;;;;;;;;5010880;28;20045;-71
2023/03/06 10:18:44;;;;;;;3.03;0.63;;;6.40;99.90;;;;;;5011762;28;20048;-72
2023/03/06 10:21:24;;;;;;;2.97;0.60;;;6.10;99.90;;;;;;4995046;28;20460;-71
2023/03/06 10:23:54;;;;;;;3.25;0.65;;;6.10;99.90;;;;;;5011604;28;20073;-71
2023/03/06 10:26:31;;;;;;;1.83;0.80;;;;;;;;;;5011613;28;20042;-72
2023/03/06 10:29:12;;;;;;;4.05;0.70;;;6.00;99.90;;;;;;5028110;28;20073;-74
2023/03/06 10:31:47;;;;;;;5.13;0.88;;;6.00;99.90;;;;;;5017213;28;20037;-72
2023/03/06 10:34:27;;;;;;;4.95;0.80;;;5.80;99.90;;;;;;5047730;28;20042;-73
2023/03/06 10:36:52;;;;;;;2.42;0.90;;;5.80;99.90;;;;;;5011763;28;20121;-72
2023/03/06 10:39:21;;;;;;;2.40;0.60;;;5.60;99.90;;;;;;5012521;28;20131;-73
2023/03/06 10:41:47;;;;;;;3.05;0.55;;;5.80;99.90;;;;;;5011165;28;20371;-73
2023/03/06 10:44:13;;;;;;;6.90;0.82;;;5.70;99.90;;;;;;5011403;28;20077;-73
2023/03/06 10:46:44;;;;;;;2.92;0.60;;;5.80;99.90;;;;;;5011130;28;20466;-73
2023/03/06 10:49:27;;;;;;;2.03;0.60;;;5.70;99.90;;;;;;5010808;28;20042;-73
2023/03/06 10:52:05;;;;;;;1.00;0.50;;;5.80;99.90;;;;;;5011574;28;20444;-73
2023/03/06 10:54:39;;;;;;;4.45;0.70;;;6.10;99.90;;;;;;5031845;28;20037;-74
2023/03/06 10:57:27;;;;;;;5.00;0.70;;;6.10;99.90;;;;;;5030415;28;20114;-74
2023/03/06 10:59:55;;;;;;;3.05;0.55;;;6.10;99.90;;;;;;5030773;28;20041;-74
2023/03/06 11:02:26;;;;;;;1.52;0.43;;;6.00;99.90;;;;;;5030239;28;20373;-73
2023/03/06 11:04:54;;;;;;;1.63;0.50;;;6.20;99.90;;;;;;5030444;28;20501;-73
2023/03/06 11:07:26;;;;;;;3.28;0.88;;;6.10;99.90;;;;;;5030035;28;20405;-74
2023/03/06 11:09:57;;;;;;;1.15;0.40;;;5.80;99.90;;;;;;5007668;28;20084;-74
2023/03/06 11:12:40;;;;;;;2.10;0.57;;;5.90;99.90;;;;;;5029931;28;20103;-75
2023/03/06 11:15:06;;;;;;;2.40;0.70;;;6.10;99.90;;;;;;5030292;28;20037;-74
2023/03/06 11:17:34;;;;;;;4.57;0.60;;;6.10;99.90;;;;;;5030443;28;20445;-74
2023/03/06 11:20:19;;;;;;;2.47;1.20;;;;;;;;;;5030484;28;20048;-74
2023/03/06 11:22:55;;;;;;;1.25;0.55;;;5.90;99.90;;;;;;5030224;28;20404;-74
2023/03/06 11:25:26;;;;;;;1.63;0.60;;;6.30;99.90;;;;;;5014112;28;20060;-74
2023/03/06 11:28:03;;;;;;;2.40;0.80;;;6.50;99.90;;;;;;5030790;28;20134;-74
2023/03/06 11:30:41;;;;;;;2.17;0.50;;;6.60;99.90;;;;;;5030546;28;20037;-73
2023/03/06 11:33:34;;;;;;;2.38;0.75;;;7.00;99.90;;;;;;5029870;28;20045;-73
2023/03/06 11:36:12;;;;;;;2.15;0.60;;;7.00;99.90;;;;;;5029662;28;20057;-72
2023/03/06 11:38:50;;;;;;;3.45;0.65;;;;;;;;;;5030160;28;20392;-74
2023/03/06 11:41:55;;;;;;;2.13;0.73;;;;;;;;;;5029749;28;20052;-72
2023/03/06 11:44:24;;;;;;;0.98;0.40;;;;;;;;;;4992556;28;20659;-74
2023/03/06 11:47:13;;;;;;;2.28;0.77;;;;;;;;;;4987624;28;20065;-73
2023/03/06 11:49:40;;;;;;;1.70;0.50;;;;;;;;;;4989946;28;20053;-73
2023/03/06 11:52:12;;;;;;;3.55;0.47;;;;;;;;;;5042665;28;20562;-73
2023/03/06 11:54:38;;;;;;;2.10;0.47;;;;;;;;;;5041184;28;20049;-74
2023/03/06 11:57:06;;;;;;;1.58;0.55;;;;;;;;;;5011077;28;20042;-74
2023/03/06 11:59:55;;;;;;;2.75;0.70;;;;;;;;;;5015626;28;20509;-74
2023/03/06 12:02:24;;;;;;;2.05;0.52;;;;;;;;;;5010097;28;20080;-73
2023/03/06 12:05:11;;;;;;;2.17;0.35;;;;;;;;;;5012408;28;20040;-74
2023/03/06 12:07:37;;;;;;;1.58;0.47;;;;;;;;;;5009156;28;20051;-73
2023/03/06 12:10:09;;;;;;;1.05;0.50;;;;;;;;;;5016020;28;20421;-73
2023/03/06 12:12:41;;;;;;;1.85;0.30;;;;;;;;;;5003203;28;20124;-74
2023/03/06 12:15:19;;;;;;;1.92;0.57;;;;;;;;;;5026027;28;20501;-73
2023/03/06 12:17:51;;;;;;;1.45;0.50;;;;;;;;;;5002652;28;20149;-73
2023/03/06 12:20:17;;;;;;;1.98;0.40;;;;;;;;;;5019168;28;20064;-72
2023/03/06 12:22:43;;;;;;;1.92;0.60;;;;;;;;;;5002229;28;20090;-72
2023/03/06 12:25:21;;;;;;;1.63;0.40;;;;;;;;;;5014416;28;20070;-72
2023/03/06 12:27:50;;;;;;;1.10;0.40;;;;;;;;;;5046788;28;20095;-73
2023/03/06 12:30:20;;;;;;;1.80;0.50;;;;;;;;;;5021584;28;20069;-72
2023/03/06 12:32:56;;;;;;;0.75;0.45;;;8.30;99.90;;;;;;4999331;28;20073;-73
2023/03/06 12:35:53;;;;;;;0.93;0.55;;;8.00;99.90;;;;;;4997813;28;20054;-73
2023/03/06 12:39:05;;;;;;;3.35;0.50;;;8.10;99.90;;;;;;5013609;28;20085;-72
2023/03/06 12:41:46;;;;;;;3.03;0.60;;;8.10;99.90;;;;;;5027345;28;20064;-72
2023/03/06 12:44:12;;;;;;;3.92;0.90;;;;;;;;;;4997182;28;20056;-74
2023/03/06 12:46:43;;;;;;;1.02;0.47;;;8.00;99.90;;;;;;5013620;28;20042;-72
2023/03/06 12:49:12;;;;;;;4.47;0.60;;;;;;;;;;5013599;28;20598;-73
2023/03/06 12:51:39;;;;;;;1.95;0.60;;;;;;;;;;4996773;28;20049;-73
2023/03/06 12:54:05;;;;;;;1.58;0.60;;;;;;;;;;5013033;28;20107;-73
2023/03/06 12:56:32;;;;;;;1.90;0.77;;;8.00;99.90;;;;;;5013285;28;20077;-73
2023/03/06 12:59:01;;;;;;;2.13;0.50;;;;;;;;;;4996929;28;20054;-72
2023/03/06 13:01:27;;;;;;;1.48;0.60;;;;;;;;;;5013020;28;20084;-73
2023/03/06 13:04:05;;;;;;;3.22;0.50;;;;;;;;;;5013473;28;20077;-72
2023/03/06 13:07:08;;;;;;;1.40;0.50;;;8.00;99.90;;;;;;5013377;28;20044;-74
2023/03/06 13:10:00;;;;;;;0.55;0.40;;;7.70;99.90;;;;;;5014230;28;20549;-72
2023/03/06 13:12:38;;;;;;;4.05;0.63;;;;;;;;;;5028766;28;20045;-72
2023/03/06 13:15:23;;;;;;;1.77;0.50;;;;;;;;;;5049636;28;20055;-72
2023/03/06 13:17:49;;;;;;;2.03;0.60;;;;;;;;;;5049273;28;20083;-72
2023/03/06 13:20:15;;;;;;;8.80;0.93;;;;;;;;;;5049084;28;20517;-73
2023/03/06 13:22:42;;;;;;;2.33;0.60;;;;;;;;;;5015866;28;20159;-72
2023/03/06 13:25:17;;;;;;;3.85;0.70;;;7.70;99.90;;;;;;5016158;28;20128;-72
2023/03/06 13:27:50;;;;;;;1.75;0.55;;;8.00;99.90;;;;;;5032584;28;20068;-73
2023/03/06 13:30:23;;;;;;;0.90;0.45;;;;;;;;;;5032222;28;20042;-73
2023/03/06 13:32:51;;;;;;;3.90;0.55;;;8.00;99.90;;;;;;5049509;28;20045;-74
2023/03/06 13:35:43;;;;;;;1.52;0.47;;;;;;;;;;5032916;28;20041;-73
2023/03/06 13:38:28;;;;;;;1.55;0.50;;;;;;;;;;5031767;28;20055;-72
2023/03/06 13:41:13;;;;;;;1.02;0.60;;;;;;;;;;5037893;28;20543;-73
2023/03/06 13:43:40;;;;;;;2.80;0.82;;;;;;;;;;5012489;28;20049;-74
2023/03/06 13:46:35;;;;;;;1.88;0.75;;;;;;;;;;5024544;28;20048;-73
2023/03/06 13:49:12;;;;;;;1.48;0.57;;;;;;;;;;5031662;28;20476;-73
2023/03/06 13:52:06;;;;;;;0.65;0.60;;;7.80;99.90;;;;;;5031848;28;20128;-73
2023/03/06 13:54:50;;;;;;;2.67;0.60;;;8.00;99.90;;;;;;5030565;28;20578;-74
2023/03/06 13:57:21;;;;;;;1.23;0.50;;;7.90;99.90;;;;;;5031511;28;20091;-73
2023/03/06 13:59:53;;;;;;;2.53;0.57;;;;;;;;;;4996997;28;20121;-72
2023/03/06 14:02:22;;;;;;;2.22;0.68;;;;;;;;;;5011450;28;20042;-71
2023/03/06 14:05:00;;;;;;;3.28;0.98;;;7.70;99.90;;;;;;4996471;28;20521;-73
2023/03/06 14:07:31;;;;;;;0.85;0.80;;;;;;;;;;5011947;28;20042;-70
2023/03/06 14:09:56;;;;;;;0.55;0.52;;;;;;;;;;5011929;28;20042;-73
2023/03/06 14:12:30;;;;;;;2.05;0.90;;;;;;;;;;5018776;28;20057;-70